sensor_id;sensor_type;location;lat;lon;timestamp;P1;durP1;ratioP1;P2;durP2;ratioP2
14094;SDS011;18096;48.142;16.290;2023-07-13T00:02:22;1.10;;;1.00;;
14094;SDS011;18096;48.142;16.290;2023-07-13T00:04:48;0.70;;;0.70;;
14094;SDS011;18096;48.142;16.290;2023-07-13T00:07:14;1.73;;;0.83;;
14094;SDS011;18096;48.142;16.290;2023-07-13T00:09:40;2.85;;;1.20;;
14094;SDS011;18096;48.142;16.290;2023-07-13T00:12:19;1.10;;;0.90;;
14094;SDS011;18096;48.142;16.290;2023-07-13T00:14:55;0.90;;;0.90;;
14094;SDS011;18096;48.142;16.290;2023-07-13T00:17:22;1.50;;;0.90;;
14094;SDS011;18096;48.142;16.290;2023-07-13T00:19:49;1.30;;;1.20;;
14094;SDS011;18096;48.142;16.290;2023-07-13T00:22:15;2.10;;;0.90;;
14094;SDS011;18096;48.142;16.290;2023-07-13T00:24:41;2.37;;;0.70;;
14094;SDS011;18096;48.142;16.290;2023-07-13T00:27:09;2.40;;;0.80;;
14094;SDS011;18096;48.142;16.290;2023-07-13T00:29:35;1.35;;;0.88;;
14094;SDS011;18096;48.142;16.290;2023-07-13T00:32:02;1.08;;;0.98;;
14094;SDS011;18096;48.142;16.290;2023-07-13T00:34:29;1.90;;;0.80;;
14094;SDS011;18096;48.142;16.290;2023-07-13T00:36:55;0.80;;;0.60;;
14094;SDS011;18096;48.142;16.290;2023-07-13T00:39:21;0.90;;;0.80;;
14094;SDS011;18096;48.142;16.290;2023-07-13T00:41:47;0.80;;;0.80;;
14094;SDS011;18096;48.142;16.290;2023-07-13T00:44:13;1.00;;;1.00;;
14094;SDS011;18096;48.142;16.290;2023-07-13T00:46:40;1.10;;;1.00;;
14094;SDS011;18096;48.142;16.290;2023-07-13T00:49:07;0.70;;;0.70;;
14094;SDS011;18096;48.142;16.290;2023-07-13T00:51:39;2.00;;;0.80;;
14094;SDS011;18096;48.142;16.290;2023-07-13T00:54:11;1.25;;;0.90;;
14094;SDS011;18096;48.142;16.290;2023-07-13T00:56:40;1.60;;;0.60;;
14094;SDS011;18096;48.142;16.290;2023-07-13T00:59:08;1.30;;;1.00;;
14094;SDS011;18096;48.142;16.290;2023-07-13T01:01:36;0.80;;;0.60;;
14094;SDS011;18096;48.142;16.290;2023-07-13T01:04:03;1.40;;;0.80;;
14094;SDS011;18096;48.142;16.290;2023-07-13T01:06:32;1.50;;;0.73;;
14094;SDS011;18096;48.142;16.290;2023-07-13T01:09:00;1.10;;;0.60;;
14094;SDS011;18096;48.142;16.290;2023-07-13T01:11:26;1.15;;;0.95;;
14094;SDS011;18096;48.142;16.290;2023-07-13T01:13:52;0.60;;;0.60;;
14094;SDS011;18096;48.142;16.290;2023-07-13T01:16:20;8.90;;;1.00;;
14094;SDS011;18096;48.142;16.290;2023-07-13T01:18:52;0.60;;;0.60;;
14094;SDS011;18096;48.142;16.290;2023-07-13T01:21:18;0.60;;;0.60;;
14094;SDS011;18096;48.142;16.290;2023-07-13T01:23:44;0.60;;;0.60;;
14094;SDS011;18096;48.142;16.290;2023-07-13T01:26:09;0.70;;;0.60;;
14094;SDS011;18096;48.142;16.290;2023-07-13T01:28:36;1.10;;;1.00;;
14094;SDS011;18096;48.142;16.290;2023-07-13T01:31:03;2.70;;;0.65;;
14094;SDS011;18096;48.142;16.290;2023-07-13T01:33:29;0.60;;;0.50;;
14094;SDS011;18096;48.142;16.290;2023-07-13T01:35:55;0.60;;;0.60;;
14094;SDS011;18096;48.142;16.290;2023-07-13T01:38:23;1.02;;;0.70;;
14094;SDS011;18096;48.142;16.290;2023-07-13T01:40:50;0.75;;;0.73;;
14094;SDS011;18096;48.142;16.290;2023-07-13T01:43:16;1.90;;;0.70;;
14094;SDS011;18096;48.142;16.290;2023-07-13T01:45:42;2.90;;;0.70;;
14094;SDS011;18096;48.142;16.290;2023-07-13T01:48:09;2.30;;;0.90;;
14094;SDS011;18096;48.142;16.290;2023-07-13T01:50:35;1.08;;;0.98;;
14094;SDS011;18096;48.142;16.290;2023-07-13T01:53:01;1.40;;;1.27;;
14094;SDS011;18096;48.142;16.290;2023-07-13T01:55:27;0.60;;;0.60;;
14094;SDS011;18096;48.142;16.290;2023-07-13T01:57:53;0.73;;;0.73;;
14094;SDS011;18096;48.142;16.290;2023-07-13T02:00:19;0.90;;;0.70;;
14094;SDS011;18096;48.142;16.290;2023-07-13T02:02:44;0.80;;;0.60;;
14094;SDS011;18096;48.142;16.290;2023-07-13T02:05:10;1.30;;;0.90;;
14094;SDS011;18096;48.142;16.290;2023-07-13T02:07:39;1.30;;;0.90;;
14094;SDS011;18096;48.142;16.290;2023-07-13T02:10:05;1.00;;;1.00;;
14094;SDS011;18096;48.142;16.290;2023-07-13T02:12:32;0.80;;;0.80;;
14094;SDS011;18096;48.142;16.290;2023-07-13T02:14:58;0.80;;;0.80;;
14094;SDS011;18096;48.142;16.290;2023-07-13T02:17:25;0.63;;;0.63;;
14094;SDS011;18096;48.142;16.290;2023-07-13T02:19:51;1.10;;;0.70;;
14094;SDS011;18096;48.142;16.290;2023-07-13T02:22:17;1.00;;;0.70;;
14094;SDS011;18096;48.142;16.290;2023-07-13T02:24:43;1.65;;;0.80;;
14094;SDS011;18096;48.142;16.290;2023-07-13T02:27:09;3.40;;;0.90;;
14094;SDS011;18096;48.142;16.290;2023-07-13T02:29:34;1.53;;;0.90;;
14094;SDS011;18096;48.142;16.290;2023-07-13T02:32:00;1.60;;;0.90;;
14094;SDS011;18096;48.142;16.290;2023-07-13T02:34:26;0.80;;;0.80;;
14094;SDS011;18096;48.142;16.290;2023-07-13T02:36:51;1.55;;;0.90;;
14094;SDS011;18096;48.142;16.290;2023-07-13T02:39:17;1.80;;;0.95;;
14094;SDS011;18096;48.142;16.290;2023-07-13T02:41:43;0.80;;;0.80;;
14094;SDS011;18096;48.142;16.290;2023-07-13T02:44:08;3.50;;;0.70;;
14094;SDS011;18096;48.142;16.290;2023-07-13T02:46:35;7.60;;;1.20;;
14094;SDS011;18096;48.142;16.290;2023-07-13T02:49:02;1.40;;;0.90;;
14094;SDS011;18096;48.142;16.290;2023-07-13T02:51:28;1.60;;;1.10;;
14094;SDS011;18096;48.142;16.290;2023-07-13T02:53:54;2.60;;;1.23;;
14094;SDS011;18096;48.142;16.290;2023-07-13T02:56:23;1.97;;;0.87;;
14094;SDS011;18096;48.142;16.290;2023-07-13T02:58:50;2.83;;;1.17;;
14094;SDS011;18096;48.142;16.290;2023-07-13T03:01:17;2.50;;;0.80;;
14094;SDS011;18096;48.142;16.290;2023-07-13T03:03:44;2.53;;;1.43;;
14094;SDS011;18096;48.142;16.290;2023-07-13T03:06:11;2.40;;;1.07;;
14094;SDS011;18096;48.142;16.290;2023-07-13T03:08:38;2.60;;;1.00;;
14094;SDS011;18096;48.142;16.290;2023-07-13T03:11:05;1.00;;;0.80;;
14094;SDS011;18096;48.142;16.290;2023-07-13T03:13:36;0.80;;;0.63;;
14094;SDS011;18096;48.142;16.290;2023-07-13T03:16:03;4.73;;;1.20;;
14094;SDS011;18096;48.142;16.290;2023-07-13T03:18:29;0.93;;;0.93;;
14094;SDS011;18096;48.142;16.290;2023-07-13T03:20:55;2.60;;;0.70;;
14094;SDS011;18096;48.142;16.290;2023-07-13T03:23:21;1.73;;;0.90;;
14094;SDS011;18096;48.142;16.290;2023-07-13T03:25:47;2.10;;;0.90;;
14094;SDS011;18096;48.142;16.290;2023-07-13T03:28:13;1.67;;;1.00;;
14094;SDS011;18096;48.142;16.290;2023-07-13T03:30:39;1.67;;;1.15;;
14094;SDS011;18096;48.142;16.290;2023-07-13T03:33:06;0.90;;;0.80;;
14094;SDS011;18096;48.142;16.290;2023-07-13T03:35:31;0.80;;;0.80;;
14094;SDS011;18096;48.142;16.290;2023-07-13T03:37:58;3.90;;;0.80;;
14094;SDS011;18096;48.142;16.290;2023-07-13T03:40:24;1.42;;;1.30;;
14094;SDS011;18096;48.142;16.290;2023-07-13T03:42:51;2.40;;;1.02;;
14094;SDS011;18096;48.142;16.290;2023-07-13T03:45:17;2.00;;;1.70;;
14094;SDS011;18096;48.142;16.290;2023-07-13T03:47:42;3.87;;;1.43;;
14094;SDS011;18096;48.142;16.290;2023-07-13T03:50:08;5.03;;;1.50;;
14094;SDS011;18096;48.142;16.290;2023-07-13T03:52:34;3.60;;;1.23;;
14094;SDS011;18096;48.142;16.290;2023-07-13T04:50:57;2.50;;;0.93;;
14094;SDS011;18096;48.142;16.290;2023-07-13T04:53:23;1.80;;;1.23;;
14094;SDS011;18096;48.142;16.290;2023-07-13T04:55:50;0.93;;;0.93;;
14094;SDS011;18096;48.142;16.290;2023-07-13T04:58:15;0.80;;;0.80;;
14094;SDS011;18096;48.142;16.290;2023-07-13T05:00:42;0.80;;;0.80;;
14094;SDS011;18096;48.142;16.290;2023-07-13T05:03:08;2.90;;;1.40;;
14094;SDS011;18096;48.142;16.290;2023-07-13T05:05:33;5.83;;;0.87;;
14094;SDS011;18096;48.142;16.290;2023-07-13T05:07:59;1.20;;;1.07;;
14094;SDS011;18096;48.142;16.290;2023-07-13T05:10:26;5.77;;;1.50;;
14094;SDS011;18096;48.142;16.290;2023-07-13T05:12:52;1.20;;;1.20;;
14094;SDS011;18096;48.142;16.290;2023-07-13T05:15:17;2.10;;;1.03;;
14094;SDS011;18096;48.142;16.290;2023-07-13T05:17:46;0.80;;;0.80;;
14094;SDS011;18096;48.142;16.290;2023-07-13T05:20:12;1.93;;;1.07;;
14094;SDS011;18096;48.142;16.290;2023-07-13T05:22:38;1.00;;;1.00;;
14094;SDS011;18096;48.142;16.290;2023-07-13T05:25:04;1.23;;;0.80;;
14094;SDS011;18096;48.142;16.290;2023-07-13T05:27:31;1.07;;;1.07;;
14094;SDS011;18096;48.142;16.290;2023-07-13T05:29:57;0.90;;;0.90;;
14094;SDS011;18096;48.142;16.290;2023-07-13T05:32:23;0.73;;;0.73;;
14094;SDS011;18096;48.142;16.290;2023-07-13T05:34:49;4.40;;;1.03;;
14094;SDS011;18096;48.142;16.290;2023-07-13T05:37:14;0.80;;;0.70;;
14094;SDS011;18096;48.142;16.290;2023-07-13T05:39:40;2.10;;;1.10;;
14094;SDS011;18096;48.142;16.290;2023-07-13T05:42:06;0.93;;;0.93;;
14094;SDS011;18096;48.142;16.290;2023-07-13T05:44:31;1.17;;;0.60;;
14094;SDS011;18096;48.142;16.290;2023-07-13T05:46:57;1.47;;;0.80;;
14094;SDS011;18096;48.142;16.290;2023-07-13T05:49:23;4.90;;;1.20;;
14094;SDS011;18096;48.142;16.290;2023-07-13T05:51:48;1.77;;;0.90;;
14094;SDS011;18096;48.142;16.290;2023-07-13T05:54:14;1.77;;;0.90;;
14094;SDS011;18096;48.142;16.290;2023-07-13T05:56:40;2.40;;;1.27;;
14094;SDS011;18096;48.142;16.290;2023-07-13T05:59:06;1.03;;;1.03;;
14094;SDS011;18096;48.142;16.290;2023-07-13T06:01:31;1.43;;;1.10;;
14094;SDS011;18096;48.142;16.290;2023-07-13T06:03:57;8.27;;;1.20;;
14094;SDS011;18096;48.142;16.290;2023-07-13T06:06:23;1.20;;;1.10;;
14094;SDS011;18096;48.142;16.290;2023-07-13T06:08:49;4.40;;;1.03;;
14094;SDS011;18096;48.142;16.290;2023-07-13T06:11:16;0.90;;;0.90;;
14094;SDS011;18096;48.142;16.290;2023-07-13T06:13:46;3.33;;;1.17;;
14094;SDS011;18096;48.142;16.290;2023-07-13T06:16:12;0.90;;;0.90;;
14094;SDS011;18096;48.142;16.290;2023-07-13T06:18:39;0.90;;;0.90;;
14094;SDS011;18096;48.142;16.290;2023-07-13T06:21:06;1.67;;;0.80;;
14094;SDS011;18096;48.142;16.290;2023-07-13T06:23:36;1.27;;;1.17;;
14094;SDS011;18096;48.142;16.290;2023-07-13T06:26:02;1.53;;;1.10;;
14094;SDS011;18096;48.142;16.290;2023-07-13T06:28:29;0.90;;;0.90;;
14094;SDS011;18096;48.142;16.290;2023-07-13T06:30:56;1.90;;;1.27;;
14094;SDS011;18096;48.142;16.290;2023-07-13T06:33:22;2.80;;;1.40;;
14094;SDS011;18096;48.142;16.290;2023-07-13T06:35:48;1.57;;;1.00;;
14094;SDS011;18096;48.142;16.290;2023-07-13T06:38:14;1.03;;;0.97;;
14094;SDS011;18096;48.142;16.290;2023-07-13T06:40:39;1.00;;;1.00;;
14094;SDS011;18096;48.142;16.290;2023-07-13T06:43:06;0.93;;;0.93;;
14094;SDS011;18096;48.142;16.290;2023-07-13T06:45:34;1.43;;;1.20;;
14094;SDS011;18096;48.142;16.290;2023-07-13T06:48:12;0.67;;;0.67;;
14094;SDS011;18096;48.142;16.290;2023-07-13T06:50:38;0.90;;;0.90;;
14094;SDS011;18096;48.142;16.290;2023-07-13T06:53:04;1.30;;;0.80;;
14094;SDS011;18096;48.142;16.290;2023-07-13T06:55:30;1.00;;;1.00;;
14094;SDS011;18096;48.142;16.290;2023-07-13T06:57:55;1.20;;;0.90;;
14094;SDS011;18096;48.142;16.290;2023-07-13T07:00:22;1.60;;;0.90;;
14094;SDS011;18096;48.142;16.290;2023-07-13T07:02:48;2.10;;;0.70;;
14094;SDS011;18096;48.142;16.290;2023-07-13T07:05:13;1.13;;;0.80;;
14094;SDS011;18096;48.142;16.290;2023-07-13T07:07:39;3.03;;;0.97;;
14094;SDS011;18096;48.142;16.290;2023-07-13T07:10:05;1.37;;;0.80;;
14094;SDS011;18096;48.142;16.290;2023-07-13T07:12:30;1.23;;;0.80;;
14094;SDS011;18096;48.142;16.290;2023-07-13T07:14:57;1.10;;;1.00;;
14094;SDS011;18096;48.142;16.290;2023-07-13T07:17:23;1.33;;;1.00;;
14094;SDS011;18096;48.142;16.290;2023-07-13T07:19:50;1.10;;;1.07;;
14094;SDS011;18096;48.142;16.290;2023-07-13T07:22:15;0.73;;;0.60;;
14094;SDS011;18096;48.142;16.290;2023-07-13T07:24:41;1.00;;;0.90;;
14094;SDS011;18096;48.142;16.290;2023-07-13T07:27:07;4.50;;;1.00;;
14094;SDS011;18096;48.142;16.290;2023-07-13T07:29:32;1.30;;;1.10;;
14094;SDS011;18096;48.142;16.290;2023-07-13T07:31:58;1.00;;;1.00;;
14094;SDS011;18096;48.142;16.290;2023-07-13T07:34:25;1.10;;;0.90;;
14094;SDS011;18096;48.142;16.290;2023-07-13T07:36:50;3.40;;;1.00;;
14094;SDS011;18096;48.142;16.290;2023-07-13T07:39:16;0.60;;;0.60;;
14094;SDS011;18096;48.142;16.290;2023-07-13T07:41:42;1.30;;;0.70;;
14094;SDS011;18096;48.142;16.290;2023-07-13T07:44:08;2.20;;;0.90;;
14094;SDS011;18096;48.142;16.290;2023-07-13T07:46:34;0.70;;;0.70;;
14094;SDS011;18096;48.142;16.290;2023-07-13T07:49:00;0.80;;;0.80;;
14094;SDS011;18096;48.142;16.290;2023-07-13T07:51:26;4.63;;;0.80;;
14094;SDS011;18096;48.142;16.290;2023-07-13T07:53:52;1.20;;;0.90;;
14094;SDS011;18096;48.142;16.290;2023-07-13T07:56:17;0.77;;;0.77;;
14094;SDS011;18096;48.142;16.290;2023-07-13T07:58:43;0.60;;;0.60;;
14094;SDS011;18096;48.142;16.290;2023-07-13T08:01:09;0.60;;;0.60;;
14094;SDS011;18096;48.142;16.290;2023-07-13T08:03:35;0.67;;;0.63;;
14094;SDS011;18096;48.142;16.290;2023-07-13T08:06:01;1.00;;;0.90;;
14094;SDS011;18096;48.142;16.290;2023-07-13T08:08:26;2.00;;;0.70;;
14094;SDS011;18096;48.142;16.290;2023-07-13T08:10:52;1.73;;;0.60;;
14094;SDS011;18096;48.142;16.290;2023-07-13T08:13:18;0.83;;;0.83;;
14094;SDS011;18096;48.142;16.290;2023-07-13T08:15:44;0.60;;;0.60;;
14094;SDS011;18096;48.142;16.290;2023-07-13T08:18:10;0.50;;;0.50;;
14094;SDS011;18096;48.142;16.290;2023-07-13T08:20:37;0.50;;;0.50;;
14094;SDS011;18096;48.142;16.290;2023-07-13T08:23:06;1.10;;;0.90;;
14094;SDS011;18096;48.142;16.290;2023-07-13T08:25:34;1.23;;;0.60;;
14094;SDS011;18096;48.142;16.290;2023-07-13T08:28:00;2.10;;;0.50;;
14094;SDS011;18096;48.142;16.290;2023-07-13T08:30:26;1.17;;;0.80;;
14094;SDS011;18096;48.142;16.290;2023-07-13T08:32:52;3.53;;;0.63;;
14094;SDS011;18096;48.142;16.290;2023-07-13T08:35:18;5.90;;;0.50;;
14094;SDS011;18096;48.142;16.290;2023-07-13T08:37:44;0.90;;;0.57;;
14094;SDS011;18096;48.142;16.290;2023-07-13T08:40:10;0.63;;;0.63;;
14094;SDS011;18096;48.142;16.290;2023-07-13T08:42:42;1.20;;;0.88;;
14094;SDS011;18096;48.142;16.290;2023-07-13T08:47:57;1.13;;;1.00;;
14094;SDS011;18096;48.142;16.290;2023-07-13T08:50:46;0.60;;;0.60;;
14094;SDS011;18096;48.142;16.290;2023-07-13T08:53:19;0.87;;;0.87;;
14094;SDS011;18096;48.142;16.290;2023-07-13T08:55:48;1.97;;;1.30;;
14094;SDS011;18096;48.142;16.290;2023-07-13T08:58:21;0.90;;;0.90;;
14094;SDS011;18096;48.142;16.290;2023-07-13T09:00:49;1.37;;;1.27;;
14094;SDS011;18096;48.142;16.290;2023-07-13T09:03:23;2.73;;;0.80;;
14094;SDS011;18096;48.142;16.290;2023-07-13T09:05:56;1.10;;;1.10;;
14094;SDS011;18096;48.142;16.290;2023-07-13T09:08:36;2.37;;;1.60;;
14094;SDS011;18096;48.142;16.290;2023-07-13T09:13:57;1.33;;;1.23;;
14094;SDS011;18096;48.142;16.290;2023-07-13T09:16:30;1.60;;;1.50;;
14094;SDS011;18096;48.142;16.290;2023-07-13T09:18:59;1.13;;;1.13;;
14094;SDS011;18096;48.142;16.290;2023-07-13T09:21:31;1.33;;;1.07;;
14094;SDS011;18096;48.142;16.290;2023-07-13T09:24:03;1.67;;;1.20;;
14094;SDS011;18096;48.142;16.290;2023-07-13T09:27:03;1.23;;;1.13;;
14094;SDS011;18096;48.142;16.290;2023-07-13T09:30:21;1.10;;;1.10;;
14094;SDS011;18096;48.142;16.290;2023-07-13T09:32:39;1.43;;;1.43;;
14094;SDS011;18096;48.142;16.290;2023-07-13T09:35:15;3.23;;;1.50;;
14094;SDS011;18096;48.142;16.290;2023-07-13T09:37:44;1.23;;;1.23;;
14094;SDS011;18096;48.142;16.290;2023-07-13T09:40:13;2.17;;;1.97;;
14094;SDS011;18096;48.142;16.290;2023-07-13T09:42:51;7.03;;;2.00;;
14094;SDS011;18096;48.142;16.290;2023-07-13T09:45:28;1.93;;;1.83;;
14094;SDS011;18096;48.142;16.290;2023-07-13T09:48:10;1.80;;;1.63;;
14094;SDS011;18096;48.142;16.290;2023-07-13T09:50:38;3.40;;;2.23;;
14094;SDS011;18096;48.142;16.290;2023-07-13T09:53:09;2.27;;;2.17;;
14094;SDS011;18096;48.142;16.290;2023-07-13T09:55:44;2.90;;;2.70;;
14094;SDS011;18096;48.142;16.290;2023-07-13T09:58:12;1.87;;;1.77;;
14094;SDS011;18096;48.142;16.290;2023-07-13T10:00:58;2.43;;;2.33;;
14094;SDS011;18096;48.142;16.290;2023-07-13T10:03:32;2.83;;;2.63;;
14094;SDS011;18096;48.142;16.290;2023-07-13T10:06:13;5.63;;;2.57;;
14094;SDS011;18096;48.142;16.290;2023-07-13T10:08:44;2.10;;;2.00;;
14094;SDS011;18096;48.142;16.290;2023-07-13T10:11:13;2.57;;;2.37;;
14094;SDS011;18096;48.142;16.290;2023-07-13T10:13:52;2.03;;;1.93;;
14094;SDS011;18096;48.142;16.290;2023-07-13T10:16:20;2.40;;;2.20;;
14094;SDS011;18096;48.142;16.290;2023-07-13T10:21:19;2.23;;;2.03;;
14094;SDS011;18096;48.142;16.290;2023-07-13T10:23:47;2.90;;;1.97;;
14094;SDS011;18096;48.142;16.290;2023-07-13T10:26:21;2.57;;;2.37;;
14094;SDS011;18096;48.142;16.290;2023-07-13T10:28:51;2.03;;;1.80;;
14094;SDS011;18096;48.142;16.290;2023-07-13T10:31:21;3.53;;;1.87;;
14094;SDS011;18096;48.142;16.290;2023-07-13T10:33:48;2.97;;;2.73;;
14094;SDS011;18096;48.142;16.290;2023-07-13T10:36:17;1.50;;;1.40;;
14094;SDS011;18096;48.142;16.290;2023-07-13T10:38:59;1.83;;;1.53;;
14094;SDS011;18096;48.142;16.290;2023-07-13T10:41:28;1.97;;;1.87;;
14094;SDS011;18096;48.142;16.290;2023-07-13T10:43:57;3.30;;;1.87;;
14094;SDS011;18096;48.142;16.290;2023-07-13T10:46:25;2.03;;;1.93;;
14094;SDS011;18096;48.142;16.290;2023-07-13T10:48:54;1.53;;;1.53;;
14094;SDS011;18096;48.142;16.290;2023-07-13T10:51:24;4.40;;;2.60;;
14094;SDS011;18096;48.142;16.290;2023-07-13T10:56:38;2.40;;;2.30;;
14094;SDS011;18096;48.142;16.290;2023-07-13T10:59:12;5.80;;;2.90;;
14094;SDS011;18096;48.142;16.290;2023-07-13T11:01:58;2.10;;;2.00;;
14094;SDS011;18096;48.142;16.290;2023-07-13T11:04:27;2.23;;;2.10;;
14094;SDS011;18096;48.142;16.290;2023-07-13T11:07:09;1.77;;;1.43;;
14094;SDS011;18096;48.142;16.290;2023-07-13T11:09:43;1.53;;;1.47;;
14094;SDS011;18096;48.142;16.290;2023-07-13T11:22:46;2.73;;;2.53;;
14094;SDS011;18096;48.142;16.290;2023-07-13T11:27:46;1.90;;;1.80;;
14094;SDS011;18096;48.142;16.290;2023-07-13T11:35:36;3.57;;;1.80;;
14094;SDS011;18096;48.142;16.290;2023-07-13T11:38:08;1.57;;;1.57;;
14094;SDS011;18096;48.142;16.290;2023-07-13T11:40:40;1.30;;;1.20;;
14094;SDS011;18096;48.142;16.290;2023-07-13T11:43:10;1.80;;;1.70;;
14094;SDS011;18096;48.142;16.290;2023-07-13T11:45:39;1.93;;;1.23;;
14094;SDS011;18096;48.142;16.290;2023-07-13T11:48:05;1.50;;;1.40;;
14094;SDS011;18096;48.142;16.290;2023-07-13T11:50:42;1.90;;;1.00;;
14094;SDS011;18096;48.142;16.290;2023-07-13T11:53:14;1.50;;;1.40;;
14094;SDS011;18096;48.142;16.290;2023-07-13T11:55:40;9.33;;;2.13;;
14094;SDS011;18096;48.142;16.290;2023-07-13T11:58:07;1.67;;;1.40;;
14094;SDS011;18096;48.142;16.290;2023-07-13T12:00:35;1.87;;;1.77;;
14094;SDS011;18096;48.142;16.290;2023-07-13T12:38:09;1.53;;;1.40;;
14094;SDS011;18096;48.142;16.290;2023-07-13T12:40:36;1.33;;;1.00;;
14094;SDS011;18096;48.142;16.290;2023-07-13T12:43:02;1.83;;;1.70;;
14094;SDS011;18096;48.142;16.290;2023-07-13T12:45:32;2.47;;;1.77;;
14094;SDS011;18096;48.142;16.290;2023-07-13T12:47:58;3.13;;;1.30;;
14094;SDS011;18096;48.142;16.290;2023-07-13T12:50:37;1.90;;;1.80;;
14094;SDS011;18096;48.142;16.290;2023-07-13T12:53:09;1.33;;;1.00;;
14094;SDS011;18096;48.142;16.290;2023-07-13T12:55:49;4.87;;;1.33;;
14094;SDS011;18096;48.142;16.290;2023-07-13T12:58:21;3.43;;;1.57;;
14094;SDS011;18096;48.142;16.290;2023-07-13T13:00:50;2.77;;;2.57;;
14094;SDS011;18096;48.142;16.290;2023-07-13T13:06:19;1.17;;;1.00;;
14094;SDS011;18096;48.142;16.290;2023-07-13T13:08:55;2.50;;;1.13;;
14094;SDS011;18096;48.142;16.290;2023-07-13T13:11:23;2.03;;;1.67;;
14094;SDS011;18096;48.142;16.290;2023-07-13T13:13:51;3.93;;;1.57;;
14094;SDS011;18096;48.142;16.290;2023-07-13T13:16:19;2.10;;;1.57;;
14094;SDS011;18096;48.142;16.290;2023-07-13T13:18:50;1.37;;;1.27;;
14094;SDS011;18096;48.142;16.290;2023-07-13T13:21:17;1.90;;;1.67;;
14094;SDS011;18096;48.142;16.290;2023-07-13T13:23:44;10.00;;;1.83;;
14094;SDS011;18096;48.142;16.290;2023-07-13T13:26:11;3.37;;;1.90;;
14094;SDS011;18096;48.142;16.290;2023-07-13T13:28:41;1.80;;;1.63;;
14094;SDS011;18096;48.142;16.290;2023-07-13T13:31:09;1.87;;;1.77;;
14094;SDS011;18096;48.142;16.290;2023-07-13T13:33:37;24.17;;;2.20;;
14094;SDS011;18096;48.142;16.290;2023-07-13T13:36:12;1.40;;;0.97;;
14094;SDS011;18096;48.142;16.290;2023-07-13T13:38:40;1.60;;;1.50;;
14094;SDS011;18096;48.142;16.290;2023-07-13T13:41:07;1.45;;;1.35;;
14094;SDS011;18096;48.142;16.290;2023-07-13T13:43:38;4.63;;;1.57;;
14094;SDS011;18096;48.142;16.290;2023-07-13T13:46:16;2.40;;;1.50;;
14094;SDS011;18096;48.142;16.290;2023-07-13T13:48:44;1.70;;;1.60;;
14094;SDS011;18096;48.142;16.290;2023-07-13T13:51:16;1.45;;;1.35;;
14094;SDS011;18096;48.142;16.290;2023-07-13T13:53:44;1.70;;;1.50;;
14094;SDS011;18096;48.142;16.290;2023-07-13T13:56:10;1.50;;;1.40;;
14094;SDS011;18096;48.142;16.290;2023-07-13T13:58:36;2.30;;;1.30;;
14094;SDS011;18096;48.142;16.290;2023-07-13T14:01:02;2.90;;;2.30;;
14094;SDS011;18096;48.142;16.290;2023-07-13T14:03:28;4.53;;;2.92;;
14094;SDS011;18096;48.142;16.290;2023-07-13T14:05:53;2.22;;;1.98;;
14094;SDS011;18096;48.142;16.290;2023-07-13T14:08:21;5.13;;;2.72;;
14094;SDS011;18096;48.142;16.290;2023-07-13T14:10:50;3.08;;;2.20;;
14094;SDS011;18096;48.142;16.290;2023-07-13T14:13:22;1.98;;;1.88;;
14094;SDS011;18096;48.142;16.290;2023-07-13T14:15:52;3.08;;;1.52;;
14094;SDS011;18096;48.142;16.290;2023-07-13T14:18:18;4.70;;;1.50;;
14094;SDS011;18096;48.142;16.290;2023-07-13T14:20:45;4.80;;;1.80;;
14094;SDS011;18096;48.142;16.290;2023-07-13T14:23:15;3.25;;;1.10;;
14094;SDS011;18096;48.142;16.290;2023-07-13T14:25:42;1.80;;;1.52;;
14094;SDS011;18096;48.142;16.290;2023-07-13T14:30:46;2.27;;;2.07;;
14094;SDS011;18096;48.142;16.290;2023-07-13T14:33:12;1.70;;;1.60;;
14094;SDS011;18096;48.142;16.290;2023-07-13T14:35:38;1.80;;;1.50;;
14094;SDS011;18096;48.142;16.290;2023-07-13T14:38:04;1.80;;;1.70;;
14094;SDS011;18096;48.142;16.290;2023-07-13T14:40:34;3.60;;;2.20;;
14094;SDS011;18096;48.142;16.290;2023-07-13T14:43:00;5.70;;;2.05;;
14094;SDS011;18096;48.142;16.290;2023-07-13T14:45:26;2.70;;;1.50;;
14094;SDS011;18096;48.142;16.290;2023-07-13T14:47:53;3.58;;;2.33;;
14094;SDS011;18096;48.142;16.290;2023-07-13T14:50:20;2.20;;;1.90;;
14094;SDS011;18096;48.142;16.290;2023-07-13T14:52:50;2.78;;;2.10;;
14094;SDS011;18096;48.142;16.290;2023-07-13T14:55:16;5.63;;;2.80;;
14094;SDS011;18096;48.142;16.290;2023-07-13T14:57:43;4.00;;;3.28;;
14094;SDS011;18096;48.142;16.290;2023-07-13T15:00:17;4.60;;;2.95;;
14094;SDS011;18096;48.142;16.290;2023-07-13T15:02:50;2.10;;;2.00;;
14094;SDS011;18096;48.142;16.290;2023-07-13T15:05:23;2.00;;;1.80;;
14094;SDS011;18096;48.142;16.290;2023-07-13T15:07:52;2.50;;;1.70;;
14094;SDS011;18096;48.142;16.290;2023-07-13T15:10:20;1.90;;;1.43;;
14094;SDS011;18096;48.142;16.290;2023-07-13T15:12:56;2.53;;;2.33;;
14094;SDS011;18096;48.142;16.290;2023-07-13T15:15:26;4.72;;;2.72;;
14094;SDS011;18096;48.142;16.290;2023-07-13T15:17:54;3.80;;;2.60;;
14094;SDS011;18096;48.142;16.290;2023-07-13T15:20:24;8.18;;;2.40;;
14094;SDS011;18096;48.142;16.290;2023-07-13T15:22:55;2.53;;;2.33;;
14094;SDS011;18096;48.142;16.290;2023-07-13T15:25:22;6.20;;;2.10;;
14094;SDS011;18096;48.142;16.290;2023-07-13T15:27:51;2.17;;;2.00;;
14094;SDS011;18096;48.142;16.290;2023-07-13T15:30:17;1.90;;;1.80;;
14094;SDS011;18096;48.142;16.290;2023-07-13T15:32:43;1.80;;;1.60;;
14094;SDS011;18096;48.142;16.290;2023-07-13T15:35:17;1.90;;;1.80;;
14094;SDS011;18096;48.142;16.290;2023-07-13T15:37:44;2.13;;;1.70;;
14094;SDS011;18096;48.142;16.290;2023-07-13T15:40:11;5.53;;;2.30;;
14094;SDS011;18096;48.142;16.290;2023-07-13T15:42:38;3.22;;;1.58;;
14094;SDS011;18096;48.142;16.290;2023-07-13T15:47:48;6.78;;;1.60;;
14094;SDS011;18096;48.142;16.290;2023-07-13T15:50:23;1.40;;;1.30;;
14094;SDS011;18096;48.142;16.290;2023-07-13T15:52:51;4.20;;;2.00;;
14094;SDS011;18096;48.142;16.290;2023-07-13T15:55:17;1.80;;;1.67;;
14094;SDS011;18096;48.142;16.290;2023-07-13T15:57:47;2.55;;;1.30;;
14094;SDS011;18096;48.142;16.290;2023-07-13T16:02:50;2.00;;;1.70;;
14094;SDS011;18096;48.142;16.290;2023-07-13T16:05:17;2.10;;;1.40;;
14094;SDS011;18096;48.142;16.290;2023-07-13T16:07:44;1.92;;;1.38;;
14094;SDS011;18096;48.142;16.290;2023-07-13T16:10:22;1.70;;;1.25;;
14094;SDS011;18096;48.142;16.290;2023-07-13T16:12:52;1.70;;;1.48;;
14094;SDS011;18096;48.142;16.290;2023-07-13T16:15:18;2.60;;;1.55;;
14094;SDS011;18096;48.142;16.290;2023-07-13T16:17:46;4.00;;;1.70;;
14094;SDS011;18096;48.142;16.290;2023-07-13T16:20:13;1.92;;;1.40;;
14094;SDS011;18096;48.142;16.290;2023-07-13T16:22:40;2.75;;;1.27;;
14094;SDS011;18096;48.142;16.290;2023-07-13T16:25:14;2.63;;;1.60;;
14094;SDS011;18096;48.142;16.290;2023-07-13T16:27:43;2.40;;;1.50;;
14094;SDS011;18096;48.142;16.290;2023-07-13T16:30:20;3.70;;;1.40;;
14094;SDS011;18096;48.142;16.290;2023-07-13T16:32:51;1.70;;;1.60;;
14094;SDS011;18096;48.142;16.290;2023-07-13T16:35:29;1.50;;;1.40;;
14094;SDS011;18096;48.142;16.290;2023-07-13T16:38:00;1.40;;;1.30;;
14094;SDS011;18096;48.142;16.290;2023-07-13T16:40:29;2.30;;;1.20;;
14094;SDS011;18096;48.142;16.290;2023-07-13T16:42:57;1.40;;;1.30;;
14094;SDS011;18096;48.142;16.290;2023-07-13T16:45:27;1.40;;;1.30;;
14094;SDS011;18096;48.142;16.290;2023-07-13T16:47:59;10.40;;;1.45;;
14094;SDS011;18096;48.142;16.290;2023-07-13T16:50:30;1.30;;;1.20;;
14094;SDS011;18096;48.142;16.290;2023-07-13T16:52:57;4.65;;;2.20;;